Time;durP1;ratioP1;P1;durP2;ratioP2;P2;SDS_P1;SDS_P2;PMS_P1;PMS_P2;Temp;Humidity;BMP_temperature;BMP_pressure;BME280_temperature;BME280_humidity;BME280_pressure;Samples;Min_cycle;Max_cycle;Signal;HPM_P1;HPM_P2
2022/01/04 00:01:14;;;;;;;0.80;0.80;;;9.50;99.90;;;;;;5281551;28;20387;-78
2022/01/04 00:03:48;;;;;;;1.73;1.70;;;9.60;99.90;;;;;;5283007;28;20042;-77
2022/01/04 00:06:21;;;;;;;0.93;0.93;;;9.70;99.90;;;;;;5257635;28;20082;-78
2022/01/04 00:08:59;;;;;;;0.70;0.70;;;9.70;99.90;;;;;;5248521;28;20044;-80
2022/01/04 00:13:20;;;;;;;0.70;0.70;;;9.60;99.90;;;;;;5264809;28;20166;-76
2022/01/04 00:14:40;;;;;;;0.80;0.80;;;9.60;99.90;;;;;;5264406;28;20060;-78
2022/01/04 00:17:13;;;;;;;1.00;1.00;;;9.60;99.90;;;;;;5246726;28;20027;-77
2022/01/04 00:19:44;;;;;;;0.80;0.80;;;9.60;99.90;;;;;;5252776;28;20047;-77
2022/01/04 00:22:15;;;;;;;0.65;0.65;;;9.70;99.90;;;;;;5264309;28;20379;-77
2022/01/04 00:24:49;;;;;;;0.90;0.90;;;9.70;99.90;;;;;;5263727;28;20032;-79
2022/01/04 00:27:23;;;;;;;0.93;0.93;;;9.70;99.90;;;;;;5247686;28;20356;-77
2022/01/04 00:29:54;;;;;;;0.80;0.80;;;9.60;99.90;;;;;;5231108;28;20405;-76
2022/01/04 00:32:28;;;;;;;0.73;0.73;;;9.60;99.90;;;;;;5258719;28;20063;-76
2022/01/04 00:35:04;;;;;;;0.90;0.90;;;9.60;99.90;;;;;;5266051;28;20040;-79
2022/01/04 00:37:37;;;;;;;0.80;0.80;;;9.60;99.90;;;;;;5247382;28;20387;-76
2022/01/04 00:40:11;;;;;;;1.02;1.02;;;9.60;99.90;;;;;;5262290;28;20027;-76
2022/01/04 00:42:44;;;;;;;0.80;0.80;;;9.50;99.90;;;;;;5248647;28;20031;-79
2022/01/04 00:45:25;;;;;;;0.90;0.90;;;9.60;99.90;;;;;;5261905;28;20137;-79
2022/01/04 00:50:31;;;;;;;0.90;0.90;;;9.60;99.90;;;;;;5263512;28;20046;-79
2022/01/04 00:53:03;;;;;;;0.95;0.95;;;9.60;99.90;;;;;;5245758;28;20023;-77
2022/01/04 00:55:35;;;;;;;0.70;0.70;;;9.70;99.90;;;;;;5245873;28;20023;-77
2022/01/04 00:58:11;;;;;;;0.80;0.80;;;9.80;99.90;;;;;;5262838;28;20363;-78
2022/01/04 01:00:42;;;;;;;1.60;1.50;;;9.80;99.90;;;;;;5259831;28;20032;-77
2022/01/04 01:03:13;;;;;;;0.80;0.80;;;9.80;99.90;;;;;;5263994;28;20039;-76
2022/01/04 01:05:44;;;;;;;0.90;0.90;;;9.70;99.90;;;;;;5266598;28;20275;-78
2022/01/04 01:08:20;;;;;;;1.70;1.60;;;9.60;99.90;;;;;;5262868;28;20234;-77
2022/01/04 01:10:54;;;;;;;0.73;0.73;;;9.60;99.90;;;;;;5247069;28;20326;-76
2022/01/04 01:13:25;;;;;;;0.80;0.80;;;9.60;99.90;;;;;;5279721;28;20341;-76
2022/01/04 01:15:57;;;;;;;0.90;0.90;;;9.60;99.90;;;;;;5262199;28;20111;-77
2022/01/04 01:18:35;;;;;;;0.80;0.80;;;9.60;99.90;;;;;;5262792;28;20032;-77
2022/01/04 01:21:07;;;;;;;0.70;0.70;;;9.50;99.90;;;;;;5246132;28;20039;-77
2022/01/04 01:23:39;;;;;;;0.80;0.80;;;9.50;99.90;;;;;;5263190;28;20248;-76
2022/01/04 01:26:17;;;;;;;0.63;0.63;;;9.40;99.90;;;;;;5270119;28;20217;-78
2022/01/04 01:28:53;;;;;;;0.75;0.75;;;9.40;99.90;;;;;;5260132;28;20107;-77
2022/01/04 01:31:27;;;;;;;0.80;0.80;;;9.30;99.90;;;;;;5263954;28;20168;-75
2022/01/04 01:34:00;;;;;;;;;;;9.20;99.90;;;;;;5246293;28;20447;-78
2022/01/04 01:36:33;;;;;;;0.82;0.82;;;9.10;99.90;;;;;;5259964;28;19923;-76
2022/01/04 01:39:08;;;;;;;0.52;0.52;;;9.10;99.90;;;;;;5262659;28;20024;-77
2022/01/04 01:41:44;;;;;;;0.93;0.93;;;9.10;99.90;;;;;;5262623;28;20279;-78
2022/01/04 01:44:15;;;;;;;0.70;0.70;;;9.00;99.90;;;;;;5263518;28;20040;-77
2022/01/04 01:46:51;;;;;;;0.70;0.70;;;9.00;99.90;;;;;;5261876;28;20333;-77
2022/01/04 01:49:25;;;;;;;0.70;0.70;;;9.00;99.90;;;;;;5262109;28;20067;-77
2022/01/04 01:51:57;;;;;;;0.50;0.50;;;9.20;99.90;;;;;;5237189;28;20035;-76
2022/01/04 01:54:31;;;;;;;0.80;0.80;;;9.30;99.90;;;;;;5261948;28;20269;-77
2022/01/04 01:57:02;;;;;;;0.90;0.90;;;9.50;99.90;;;;;;5281665;27;20039;-77
2022/01/04 01:59:40;;;;;;;0.50;0.50;;;9.60;99.90;;;;;;5256415;28;20056;-78
2022/01/04 02:02:11;;;;;;;0.60;0.60;;;9.60;99.90;;;;;;5261811;28;20038;-77
2022/01/04 02:04:42;;;;;;;0.80;0.80;;;9.60;99.90;;;;;;5272139;28;20505;-76
2022/01/04 02:07:18;;;;;;;0.68;0.68;;;9.60;99.90;;;;;;5275524;28;20327;-79
2022/01/04 02:10:05;;;;;;;0.77;0.77;;;9.50;99.90;;;;;;5278683;28;20265;-76
2022/01/04 02:12:47;;;;;;;0.80;0.80;;;9.40;99.90;;;;;;5259178;28;20036;-77
2022/01/04 02:15:22;;;;;;;0.77;0.77;;;9.30;99.90;;;;;;5270917;28;20250;-79
2022/01/04 02:17:58;;;;;;;0.70;0.70;;;9.20;99.90;;;;;;5261522;28;20095;-77
2022/01/04 02:20:32;;;;;;;0.77;0.77;;;9.00;99.90;;;;;;5261483;28;20328;-76
2022/01/04 02:23:03;;;;;;;0.90;0.90;;;9.00;99.90;;;;;;5277695;28;20028;-77
2022/01/04 02:25:34;;;;;;;0.70;0.70;;;8.90;99.90;;;;;;5244303;28;20059;-77
2022/01/04 02:28:07;;;;;;;0.80;0.80;;;9.00;99.90;;;;;;5260700;28;20027;-79
2022/01/04 02:30:38;;;;;;;0.83;0.83;;;9.00;99.90;;;;;;5262047;28;20401;-78
2022/01/04 02:33:18;;;;;;;0.70;0.70;;;9.00;99.90;;;;;;5260340;28;20028;-77
2022/01/04 02:35:52;;;;;;;0.70;0.70;;;9.00;99.90;;;;;;5228310;28;20111;-78
2022/01/04 02:38:23;;;;;;;0.90;0.90;;;9.10;99.90;;;;;;5240650;28;20459;-76
2022/01/04 02:40:59;;;;;;;0.70;0.70;;;9.10;99.90;;;;;;5262878;28;20063;-77
2022/01/04 02:43:38;;;;;;;0.80;0.80;;;9.20;99.90;;;;;;5260234;28;20219;-76
2022/01/04 02:46:08;;;;;;;0.80;0.80;;;9.40;99.90;;;;;;5262184;28;20535;-77
2022/01/04 02:48:48;;;;;;;0.82;0.82;;;9.40;99.90;;;;;;5277712;28;20262;-77
2022/01/04 02:51:26;;;;;;;0.77;0.77;;;9.40;99.90;;;;;;5256593;28;20028;-75
2022/01/04 02:53:59;;;;;;;0.90;0.90;;;9.40;99.90;;;;;;5279486;27;20313;-78
2022/01/04 02:56:35;;;;;;;0.70;0.70;;;9.40;99.90;;;;;;5261413;28;20039;-77
2022/01/04 02:59:11;;;;;;;0.65;0.65;;;9.30;99.90;;;;;;5243893;28;20036;-76
2022/01/04 03:01:43;;;;;;;0.70;0.70;;;9.20;99.90;;;;;;5260930;28;20036;-76
2022/01/04 03:04:15;;;;;;;0.77;0.77;;;9.00;99.90;;;;;;5243411;28;20032;-78
2022/01/04 03:06:46;;;;;;;0.70;0.70;;;8.90;99.90;;;;;;5260686;28;20331;-77
2022/01/04 03:09:20;;;;;;;0.80;0.80;;;8.80;99.90;;;;;;5261633;28;20026;-77
2022/01/04 03:11:50;;;;;;;0.75;0.75;;;8.80;99.90;;;;;;5261291;28;20047;-75
2022/01/04 03:14:23;;;;;;;1.17;1.17;;;8.80;99.90;;;;;;5277703;28;20028;-77
2022/01/04 03:16:54;;;;;;;0.70;0.70;;;8.80;99.90;;;;;;5260795;28;20035;-75
2022/01/04 03:19:25;;;;;;;0.80;0.80;;;8.70;99.90;;;;;;5243721;28;20350;-77
2022/01/04 03:21:59;;;;;;;0.50;0.50;;;8.70;99.90;;;;;;5245117;28;20046;-75
2022/01/04 03:24:34;;;;;;;0.60;0.60;;;8.80;99.90;;;;;;5260579;28;20263;-75
2022/01/04 03:27:10;;;;;;;0.90;0.90;;;8.70;99.90;;;;;;5260276;28;20035;-77
2022/01/04 03:29:40;;;;;;;0.70;0.70;;;8.70;99.90;;;;;;5261529;28;20312;-77
2022/01/04 03:32:22;;;;;;;0.77;0.77;;;8.70;99.90;;;;;;5260728;28;20028;-77
2022/01/04 03:34:57;;;;;;;0.65;0.65;;;8.70;99.90;;;;;;5242703;28;20063;-76
2022/01/04 03:37:35;;;;;;;1.02;1.02;;;8.70;99.90;;;;;;5260157;28;20047;-76
2022/01/04 03:40:12;;;;;;;0.70;0.70;;;8.70;99.90;;;;;;5276962;28;20035;-76
2022/01/04 03:42:46;;;;;;;0.60;0.60;;;8.60;99.90;;;;;;5277069;28;20293;-78
2022/01/04 03:45:17;;;;;;;1.27;1.23;;;8.50;99.90;;;;;;5259845;28;20082;-79
2022/01/04 03:47:50;;;;;;;0.90;0.90;;;8.50;99.90;;;;;;5222921;28;20141;-76
2022/01/04 03:50:26;;;;;;;0.98;0.98;;;8.50;99.90;;;;;;5258461;28;20052;-78
2022/01/04 03:53:00;;;;;;;0.80;0.80;;;8.40;99.90;;;;;;5241896;28;20036;-78
2022/01/04 03:55:34;;;;;;;0.88;0.88;;;8.30;99.90;;;;;;5259680;28;20047;-76
2022/01/04 03:58:08;;;;;;;0.82;0.82;;;8.20;99.90;;;;;;5261558;28;20439;-76
2022/01/04 04:00:39;;;;;;;0.82;0.82;;;8.10;99.90;;;;;;5228102;28;20059;-76
2022/01/04 04:03:12;;;;;;;0.40;0.40;;;8.10;99.90;;;;;;5260938;28;20103;-76
2022/01/04 04:05:46;;;;;;;0.80;0.80;;;8.10;99.90;;;;;;5236887;28;20044;-77
2022/01/04 04:08:22;;;;;;;1.10;1.10;;;8.10;99.90;;;;;;5260296;28;20052;-79
2022/01/04 04:10:53;;;;;;;1.42;1.40;;;8.20;99.90;;;;;;5259934;28;20286;-76
2022/01/04 04:13:30;;;;;;;0.73;0.73;;;8.20;99.90;;;;;;5259216;28;20063;-77
2022/01/04 04:16:01;;;;;;;0.70;0.70;;;8.10;99.90;;;;;;5261037;28;20292;-78
2022/01/04 04:18:34;;;;;;;0.75;0.75;;;8.00;99.90;;;;;;5259945;28;20047;-76
2022/01/04 04:21:05;;;;;;;0.80;0.80;;;8.00;99.90;;;;;;5276704;28;20077;-77
2022/01/04 04:23:39;;;;;;;0.68;0.68;;;8.00;99.90;;;;;;5254298;28;20068;-75
2022/01/04 04:26:10;;;;;;;0.93;0.93;;;8.10;99.90;;;;;;5260957;28;20038;-79
2022/01/04 04:28:41;;;;;;;0.90;0.90;;;8.10;99.90;;;;;;5259850;28;20119;-75
2022/01/04 04:31:20;;;;;;;0.70;0.70;;;8.10;99.90;;;;;;5264482;28;20016;-77
2022/01/04 04:33:55;;;;;;;0.77;0.77;;;8.10;99.90;;;;;;5258903;28;20046;-78
2022/01/04 04:36:27;;;;;;;1.00;1.00;;;8.30;99.90;;;;;;5227179;28;20315;-76
2022/01/04 04:39:03;;;;;;;0.80;0.80;;;8.30;99.90;;;;;;5260949;28;20271;-76
2022/01/04 04:41:39;;;;;;;0.60;0.60;;;8.30;99.90;;;;;;5256081;28;20068;-76
2022/01/04 04:44:09;;;;;;;0.60;0.60;;;8.30;99.90;;;;;;5259897;28;20052;-77
2022/01/04 04:46:44;;;;;;;0.60;0.60;;;8.30;99.90;;;;;;5260049;28;20082;-79
2022/01/04 04:49:16;;;;;;;0.70;0.70;;;8.30;99.90;;;;;;5261022;28;20350;-76
2022/01/04 04:51:50;;;;;;;0.63;0.63;;;8.30;99.90;;;;;;5247047;28;20048;-78
2022/01/04 04:54:21;;;;;;;1.10;1.10;;;8.20;99.90;;;;;;5265395;28;20024;-76
2022/01/04 04:56:52;;;;;;;0.80;0.80;;;8.20;99.90;;;;;;5249726;28;20032;-79
2022/01/04 04:59:29;;;;;;;0.60;0.60;;;8.20;99.90;;;;;;5268597;28;20621;-76
2022/01/04 05:02:01;;;;;;;0.80;0.80;;;8.10;99.90;;;;;;5270785;28;20032;-78
2022/01/04 05:04:35;;;;;;;1.15;1.15;;;8.10;99.90;;;;;;5255990;28;20391;-79
2022/01/04 05:07:06;;;;;;;0.80;0.80;;;8.10;99.90;;;;;;5245889;28;20035;-78
2022/01/04 05:09:40;;;;;;;0.90;0.90;;;8.10;99.90;;;;;;5260991;28;20044;-77
2022/01/04 05:12:15;;;;;;;0.90;0.90;;;8.10;99.90;;;;;;5274128;28;20028;-77
2022/01/04 05:14:46;;;;;;;0.80;0.80;;;8.10;99.90;;;;;;5242587;28;20058;-76
2022/01/04 05:17:20;;;;;;;0.90;0.90;;;8.10;99.90;;;;;;5262999;28;20036;-78
2022/01/04 05:19:54;;;;;;;0.80;0.80;;;8.10;99.90;;;;;;5241500;28;20109;-76
2022/01/04 05:22:30;;;;;;;0.85;0.85;;;8.10;99.90;;;;;;5262332;28;20133;-76
2022/01/04 05:25:01;;;;;;;0.75;0.75;;;8.10;99.90;;;;;;5262204;28;20447;-79
2022/01/04 05:27:35;;;;;;;1.30;1.30;;;8.10;99.90;;;;;;5244622;28;20503;-78
2022/01/04 05:30:06;;;;;;;0.63;0.63;;;8.00;99.90;;;;;;5263182;28;20024;-78
2022/01/04 05:32:39;;;;;;;0.95;0.95;;;8.00;99.90;;;;;;5263435;28;20023;-78
2022/01/04 05:35:10;;;;;;;1.23;1.23;;;7.90;99.90;;;;;;5246391;28;20035;-78
2022/01/04 05:37:46;;;;;;;0.80;0.80;;;7.90;99.90;;;;;;5261777;28;20040;-75
2022/01/04 05:40:22;;;;;;;0.70;0.70;;;7.80;99.90;;;;;;5246202;28;20028;-78
2022/01/04 05:42:53;;;;;;;0.60;0.60;;;7.80;99.90;;;;;;5263454;28;20581;-76
2022/01/04 05:45:25;;;;;;;0.60;0.60;;;7.80;99.90;;;;;;5237948;28;20040;-76
2022/01/04 05:48:03;;;;;;;0.50;0.50;;;7.80;99.90;;;;;;5245087;28;20040;-77
2022/01/04 05:50:39;;;;;;;0.55;0.55;;;7.80;99.90;;;;;;5223114;28;20036;-75
2022/01/04 05:53:13;;;;;;;0.98;0.98;;;7.70;99.90;;;;;;5264395;28;20415;-76
2022/01/04 05:55:47;;;;;;;0.80;0.80;;;7.70;99.90;;;;;;5244671;28;20028;-75
2022/01/04 05:58:18;;;;;;;0.60;0.60;;;7.60;99.90;;;;;;5261207;28;20032;-76
2022/01/04 06:00:51;;;;;;;0.65;0.65;;;7.50;99.90;;;;;;5278106;28;20039;-76
2022/01/04 06:03:22;;;;;;;0.90;0.90;;;7.40;99.90;;;;;;5260559;28;20329;-77
2022/01/04 06:05:56;;;;;;;0.80;0.80;;;7.40;99.90;;;;;;5265659;28;20059;-76
2022/01/04 06:08:35;;;;;;;1.30;1.20;;;7.40;99.90;;;;;;5263399;28;20035;-75
2022/01/04 06:11:29;;;;;;;0.80;0.80;;;7.40;99.90;;;;;;5262269;28;20660;-77
2022/01/04 06:16:57;;;;;;;1.02;0.98;;;7.50;99.90;;;;;;5262237;28;20032;-77
2022/01/04 06:19:28;;;;;;;0.80;0.80;;;7.40;99.90;;;;;;5260953;28;20464;-78
2022/01/04 06:22:01;;;;;;;0.73;0.73;;;7.40;99.90;;;;;;5245392;28;20077;-76
2022/01/04 06:24:37;;;;;;;0.98;0.98;;;7.30;99.90;;;;;;5262714;28;20027;-77
2022/01/04 06:27:16;;;;;;;0.90;0.90;;;7.30;99.90;;;;;;5245118;28;20022;-78
2022/01/04 06:29:49;;;;;;;0.80;0.80;;;7.20;99.90;;;;;;5253506;28;20056;-77
2022/01/04 06:32:20;;;;;;;0.60;0.60;;;7.10;99.90;;;;;;5278462;28;20042;-77
2022/01/04 06:34:51;;;;;;;0.80;0.80;;;7.20;99.90;;;;;;5261190;28;20055;-77
2022/01/04 06:37:22;;;;;;;0.95;0.95;;;7.20;99.90;;;;;;5244664;28;20068;-77
2022/01/04 06:39:57;;;;;;;0.68;0.68;;;7.20;99.90;;;;;;5262829;28;20043;-77
2022/01/04 06:42:29;;;;;;;1.35;1.30;;;7.20;99.90;;;;;;5262463;28;20020;-77
2022/01/04 06:45:00;;;;;;;0.90;0.90;;;7.20;99.90;;;;;;5277654;28;20111;-78
2022/01/04 06:47:35;;;;;;;0.93;0.93;;;7.20;99.90;;;;;;5256573;28;20039;-77
2022/01/04 06:50:09;;;;;;;0.98;0.98;;;7.20;99.90;;;;;;5261549;28;20595;-78
2022/01/04 06:52:43;;;;;;;0.90;0.90;;;7.20;99.90;;;;;;5259363;28;20059;-78
2022/01/04 06:55:19;;;;;;;0.80;0.80;;;7.20;99.90;;;;;;5259328;28;20095;-78
2022/01/04 06:57:55;;;;;;;0.90;0.90;;;7.20;99.90;;;;;;5242397;28;20053;-78
2022/01/04 07:00:29;;;;;;;1.10;1.10;;;7.10;99.90;;;;;;5259298;28;20032;-78
2022/01/04 07:03:05;;;;;;;;;;;7.20;99.90;;;;;;5264061;28;20101;-77
2022/01/04 07:05:39;;;;;;;1.58;1.23;;;7.20;99.90;;;;;;5258288;28;20360;-75
2022/01/04 07:08:13;;;;;;;1.00;1.00;;;7.20;99.90;;;;;;5277546;27;20108;-76
2022/01/04 07:10:44;;;;;;;0.67;0.67;;;7.30;99.90;;;;;;5274116;28;20048;-78
2022/01/04 07:13:17;;;;;;;0.75;0.75;;;7.40;99.90;;;;;;5241790;28;20264;-76
2022/01/04 07:15:53;;;;;;;0.75;0.75;;;7.50;99.90;;;;;;5262389;28;20573;-76
2022/01/04 07:18:26;;;;;;;1.83;1.73;;;7.50;99.90;;;;;;5243277;28;20393;-77
2022/01/04 07:21:03;;;;;;;1.75;1.65;;;7.50;99.90;;;;;;5259240;28;20027;-78
2022/01/04 07:23:37;;;;;;;0.80;0.80;;;7.60;99.90;;;;;;5266577;28;20380;-76
2022/01/04 07:26:14;;;;;;;0.95;0.95;;;7.60;99.90;;;;;;5260614;28;20035;-78
2022/01/04 07:28:47;;;;;;;0.70;0.70;;;7.60;99.90;;;;;;5244496;28;20082;-76
2022/01/04 07:31:18;;;;;;;0.70;0.70;;;7.60;99.90;;;;;;5259104;28;20072;-76
2022/01/04 07:33:52;;;;;;;0.88;0.88;;;7.60;99.90;;;;;;5241235;28;20067;-76
2022/01/04 07:36:25;;;;;;;0.90;0.90;;;7.70;99.90;;;;;;5263366;28;20032;-75
2022/01/04 07:38:59;;;;;;;0.82;0.82;;;7.80;99.90;;;;;;5262298;28;20035;-76
2022/01/04 07:41:35;;;;;;;0.90;0.90;;;7.80;99.90;;;;;;5260621;28;20039;-76
2022/01/04 07:44:11;;;;;;;1.55;1.45;;;7.80;99.90;;;;;;5237778;28;20059;-76
2022/01/04 07:46:45;;;;;;;0.80;0.80;;;7.80;99.90;;;;;;5243845;28;20055;-77
2022/01/04 07:49:17;;;;;;;0.82;0.82;;;7.80;99.90;;;;;;5252616;28;20338;-76
2022/01/04 07:51:48;;;;;;;0.80;0.80;;;7.80;99.90;;;;;;5261927;28;20307;-77
2022/01/04 07:54:19;;;;;;;0.80;0.80;;;7.80;99.90;;;;;;5263395;28;20059;-75
2022/01/04 07:56:53;;;;;;;0.55;0.55;;;8.00;99.90;;;;;;5260498;28;20044;-77
2022/01/04 07:59:34;;;;;;;0.60;0.60;;;8.10;99.90;;;;;;5260116;28;20202;-76
2022/01/04 08:02:05;;;;;;;0.60;0.60;;;8.10;99.90;;;;;;5260667;28;20313;-75
2022/01/04 08:04:39;;;;;;;0.60;0.60;;;8.10;99.90;;;;;;5249791;28;20051;-76
2022/01/04 08:07:10;;;;;;;1.00;1.00;;;8.20;99.90;;;;;;5264184;28;20099;-76
2022/01/04 08:09:45;;;;;;;0.80;0.80;;;8.20;99.90;;;;;;5264324;28;20298;-76
2022/01/04 08:12:17;;;;;;;0.90;0.90;;;8.20;99.90;;;;;;5282060;28;20084;-76
2022/01/04 08:14:48;;;;;;;1.08;1.08;;;8.30;99.90;;;;;;5282454;28;20042;-76
2022/01/04 08:17:19;;;;;;;0.90;0.90;;;8.30;99.90;;;;;;5264692;28;20217;-75
2022/01/04 08:19:55;;;;;;;1.13;1.13;;;8.40;99.90;;;;;;5282116;28;20230;-76
2022/01/04 08:22:34;;;;;;;0.85;0.85;;;8.50;99.90;;;;;;5257198;28;20051;-78
2022/01/04 08:25:10;;;;;;;1.67;1.60;;;8.60;99.90;;;;;;5285775;28;20039;-76
2022/01/04 08:27:43;;;;;;;1.20;1.20;;;8.80;99.90;;;;;;5286059;28;20048;-75
2022/01/04 08:30:15;;;;;;;1.02;1.02;;;9.10;99.90;;;;;;5286490;28;20028;-75
2022/01/04 08:32:51;;;;;;;1.25;1.25;;;9.30;99.90;;;;;;5289050;27;20356;-77
2022/01/04 08:35:22;;;;;;;0.77;0.77;;;9.50;99.90;;;;;;5267911;28;20050;-78
2022/01/04 08:37:56;;;;;;;1.65;1.55;;;9.70;99.90;;;;;;5268793;28;20032;-76
2022/01/04 08:40:27;;;;;;;1.42;1.42;;;9.70;99.90;;;;;;5250857;28;20373;-76
2022/01/04 08:43:05;;;;;;;1.00;1.00;;;9.60;99.90;;;;;;5259674;28;20036;-78
2022/01/04 08:45:38;;;;;;;1.00;1.00;;;9.60;99.90;;;;;;5270018;28;20364;-77
2022/01/04 08:48:11;;;;;;;1.40;1.40;;;9.40;99.90;;;;;;5277737;28;20028;-76
2022/01/04 08:50:44;;;;;;;1.83;1.73;;;9.30;99.90;;;;;;5286354;28;20321;-77
2022/01/04 08:53:15;;;;;;;0.85;0.85;;;9.20;99.90;;;;;;5285404;28;20033;-76
2022/01/04 08:55:47;;;;;;;0.80;0.80;;;9.30;99.90;;;;;;5285066;28;20023;-76
2022/01/04 08:58:18;;;;;;;0.80;0.80;;;9.30;99.90;;;;;;5249888;28;20022;-76
2022/01/04 09:00:53;;;;;;;1.10;1.10;;;9.30;99.90;;;;;;5285093;28;20296;-78
2022/01/04 09:03:24;;;;;;;1.30;1.30;;;9.40;99.90;;;;;;5265864;27;20027;-76
2022/01/04 09:05:56;;;;;;;2.17;2.08;;;9.30;99.90;;;;;;5256221;28;20055;-76
2022/01/04 09:08:31;;;;;;;1.60;1.48;;;9.40;99.90;;;;;;5261833;28;20555;-76
2022/01/04 09:11:06;;;;;;;1.10;1.10;;;9.30;99.90;;;;;;5262608;28;20103;-75
2022/01/04 09:13:43;;;;;;;0.80;0.80;;;9.20;99.90;;;;;;5267850;28;20062;-78
2022/01/04 09:19:08;;;;;;;1.02;1.02;;;9.20;99.90;;;;;;5257306;28;20024;-77
2022/01/04 09:21:42;;;;;;;0.70;0.70;;;9.20;99.90;;;;;;5262515;28;20038;-75
2022/01/04 09:24:13;;;;;;;0.88;0.88;;;9.30;99.90;;;;;;5263116;28;20038;-76
2022/01/04 09:26:44;;;;;;;0.80;0.80;;;9.30;99.90;;;;;;5266075;28;20319;-77
2022/01/04 09:29:18;;;;;;;0.88;0.88;;;9.30;99.90;;;;;;5246922;28;20047;-77
2022/01/04 09:31:53;;;;;;;2.00;1.65;;;9.20;99.90;;;;;;5263145;28;20043;-77
2022/01/04 09:34:30;;;;;;;1.00;1.00;;;9.40;99.90;;;;;;5264402;28;20028;-77
2022/01/04 09:37:06;;;;;;;0.70;0.70;;;9.40;99.90;;;;;;5262647;28;20332;-78
2022/01/04 09:39:37;;;;;;;1.70;1.63;;;9.60;99.90;;;;;;5263627;28;20032;-76
2022/01/04 09:42:11;;;;;;;1.40;1.40;;;9.70;99.90;;;;;;5262131;28;20264;-78
2022/01/04 09:44:44;;;;;;;1.55;1.55;;;9.80;99.90;;;;;;5263068;28;20284;-77
2022/01/04 09:47:15;;;;;;;1.00;1.00;;;9.90;99.90;;;;;;5260753;28;20036;-77
2022/01/04 09:49:51;;;;;;;1.00;1.00;;;9.90;99.90;;;;;;5266478;28;20046;-78
2022/01/04 09:52:22;;;;;;;0.80;0.80;;;9.90;99.90;;;;;;5244309;28;20167;-78
2022/01/04 09:54:56;;;;;;;1.17;1.15;;;9.80;99.90;;;;;;5244379;28;20327;-78
2022/01/04 09:57:30;;;;;;;1.10;1.10;;;9.70;99.90;;;;;;5243616;28;20068;-77
2022/01/04 10:00:01;;;;;;;0.85;0.85;;;9.80;99.90;;;;;;5261643;28;20562;-77
2022/01/04 10:02:35;;;;;;;1.60;1.60;;;9.80;99.90;;;;;;5259605;28;20031;-76
2022/01/04 10:05:32;;;;;;;1.25;1.25;;;9.80;99.90;;;;;;5251503;28;20060;-76
2022/01/04 10:08:06;;;;;;;3.03;2.67;;;9.90;99.90;;;;;;5263269;28;20385;-79
2022/01/04 10:10:39;;;;;;;0.95;0.95;;;9.90;99.90;;;;;;5252685;28;20055;-76
2022/01/04 10:13:21;;;;;;;1.30;1.30;;;9.90;99.90;;;;;;5265909;28;20031;-78
2022/01/04 10:15:54;;;;;;;1.67;1.67;;;10.00;99.90;;;;;;5261527;28;20348;-77
2022/01/04 10:18:28;;;;;;;0.60;0.60;;;10.00;99.90;;;;;;5267046;28;20268;-76
2022/01/04 10:20:59;;;;;;;1.30;1.30;;;10.00;99.90;;;;;;5249044;28;20023;-77
2022/01/04 10:23:30;;;;;;;1.02;1.02;;;10.00;99.90;;;;;;5257547;28;20318;-76
2022/01/04 10:26:37;;;;;;;1.48;1.48;;;10.20;99.90;;;;;;5239563;28;20074;-75
2022/01/04 10:29:32;;;;;;;1.20;1.20;;;10.40;99.90;;;;;;5250990;28;20069;-77
2022/01/04 10:32:17;;;;;;;1.20;1.20;;;10.30;99.90;;;;;;5242342;28;20040;-76
2022/01/04 10:34:48;;;;;;;1.17;1.10;;;10.40;99.90;;;;;;5247008;28;20121;-75
2022/01/04 10:37:40;;;;;;;1.17;1.17;;;10.80;99.90;;;;;;5216544;28;20111;-76
2022/01/04 10:40:14;;;;;;;2.42;2.33;;;10.80;99.90;;;;;;5254134;28;20036;-77
2022/01/04 10:42:45;;;;;;;;;;;11.10;99.90;;;;;;5199493;28;20392;-76
2022/01/04 10:45:28;;;;;;;1.77;1.70;;;10.70;99.90;;;;;;5218024;28;19932;-77
2022/01/04 10:48:26;;;;;;;1.95;1.88;;;10.40;99.90;;;;;;5215790;28;20096;-76
2022/01/04 10:51:09;;;;;;;1.10;1.10;;;10.30;99.90;;;;;;5255487;28;20148;-75
2022/01/04 10:54:06;;;;;;;1.25;1.25;;;10.20;99.90;;;;;;5256054;28;20032;-77
2022/01/04 10:56:40;;;;;;;1.67;1.58;;;9.90;99.90;;;;;;5223037;28;20131;-75
2022/01/04 10:59:13;;;;;;;2.10;2.00;;;9.90;99.90;;;;;;5260539;28;20301;-75
2022/01/04 11:01:50;;;;;;;1.48;1.38;;;9.90;99.90;;;;;;5261148;28;20039;-75
2022/01/04 11:04:24;;;;;;;2.40;2.30;;;9.90;99.90;;;;;;5250562;28;20039;-76
2022/01/04 11:07:01;;;;;;;1.98;1.88;;;9.80;99.90;;;;;;5260149;28;20024;-77
2022/01/04 11:09:39;;;;;;;2.28;2.08;;;9.80;99.90;;;;;;5261508;28;20101;-75
2022/01/04 11:12:13;;;;;;;1.27;1.27;;;9.90;99.90;;;;;;5260954;28;20058;-77
2022/01/04 11:14:46;;;;;;;0.93;0.93;;;9.70;99.90;;;;;;5258711;28;20477;-75
2022/01/04 11:17:19;;;;;;;2.03;1.92;;;9.70;99.90;;;;;;5258268;28;20055;-78
2022/01/04 11:19:50;;;;;;;1.00;1.00;;;9.70;99.90;;;;;;5243396;28;20039;-76
2022/01/04 11:22:27;;;;;;;1.63;1.52;;;9.80;99.90;;;;;;5260141;28;20035;-76
2022/01/04 11:25:02;;;;;;;4.50;3.55;;;10.00;99.90;;;;;;5256330;28;20036;-75
2022/01/04 11:27:44;;;;;;;0.88;0.88;;;10.00;99.90;;;;;;5248782;28;20044;-75
2022/01/04 11:30:29;;;;;;;1.73;1.63;;;10.10;99.90;;;;;;5245356;28;20035;-75
2022/01/04 11:33:11;;;;;;;;;;;10.00;99.90;;;;;;5241445;28;20104;-76
2022/01/04 11:35:46;;;;;;;2.10;1.35;;;10.20;99.90;;;;;;5243006;28;19916;-76
2022/01/04 11:38:51;;;;;;;1.00;1.00;;;10.20;99.90;;;;;;5259491;28;20165;-76
2022/01/04 11:41:35;;;;;;;2.10;2.00;;;10.20;99.90;;;;;;5173856;28;20108;-78
2022/01/04 11:44:22;;;;;;;1.70;1.65;;;10.30;99.90;;;;;;5190585;28;20045;-76
2022/01/04 11:47:15;;;;;;;2.15;2.05;;;10.20;99.90;;;;;;5184972;28;20041;-77
2022/01/04 11:50:24;;;;;;;2.42;2.28;;;10.10;99.90;;;;;;5160617;28;20073;-75
2022/01/04 11:53:03;;;;;;;1.48;1.38;;;9.80;99.90;;;;;;5194579;28;20399;-76
2022/01/04 11:55:40;;;;;;;1.40;1.35;;;9.40;99.90;;;;;;5178943;28;20624;-77
2022/01/04 11:58:14;;;;;;;1.48;1.38;;;9.30;99.90;;;;;;5194146;28;20101;-77
2022/01/04 12:01:00;;;;;;;1.30;1.30;;;9.20;99.90;;;;;;5176364;28;20136;-75
2022/01/04 12:03:39;;;;;;;2.53;2.33;;;9.20;99.90;;;;;;5171627;28;20065;-76
2022/01/04 12:06:13;;;;;;;1.42;1.42;;;9.20;99.90;;;;;;5186585;28;20069;-77
2022/01/04 12:08:52;;;;;;;1.30;1.30;;;9.20;99.90;;;;;;5193067;28;20073;-75
2022/01/04 12:11:32;;;;;;;1.05;1.05;;;9.20;99.90;;;;;;5192869;28;20060;-78
2022/01/04 12:14:05;;;;;;;1.27;1.27;;;9.30;99.90;;;;;;5177203;28;20104;-74
2022/01/04 12:16:45;;;;;;;2.00;1.23;;;9.40;99.90;;;;;;5205186;28;20082;-76
2022/01/04 12:19:16;;;;;;;2.25;2.05;;;9.50;99.90;;;;;;5267780;28;20870;-76
2022/01/04 12:22:11;;;;;;;1.73;1.70;;;9.50;99.90;;;;;;5255973;28;20059;-77
2022/01/04 12:24:48;;;;;;;1.10;1.10;;;9.50;99.90;;;;;;5252476;28;20502;-76
2022/01/04 12:27:24;;;;;;;0.82;0.82;;;9.50;99.90;;;;;;5259636;28;20333;-76
2022/01/04 12:30:31;;;;;;;1.02;1.02;;;9.70;99.90;;;;;;5257851;28;20036;-75
2022/01/04 12:33:43;;;;;;;0.90;0.90;;;10.00;99.90;;;;;;5255489;28;20031;-77
2022/01/04 12:36:42;;;;;;;1.17;1.17;;;10.40;99.90;;;;;;5249454;28;20613;-78
2022/01/04 12:39:30;;;;;;;0.90;0.90;;;11.00;99.90;;;;;;5237475;28;20214;-80
2022/01/04 12:42:07;;;;;;;1.20;1.20;;;11.30;99.90;;;;;;5257239;28;20123;-79
2022/01/04 12:44:38;;;;;;;2.22;2.13;;;11.40;99.90;;;;;;5253136;28;20036;-76
2022/01/04 12:47:14;;;;;;;1.02;1.02;;;11.30;99.90;;;;;;5256548;28;20036;-78
2022/01/04 12:49:54;;;;;;;2.05;1.95;;;11.40;99.90;;;;;;5254721;28;20443;-78
2022/01/04 12:52:28;;;;;;;1.48;1.48;;;11.30;99.90;;;;;;5258452;28;20047;-78
2022/01/04 12:55:11;;;;;;;1.45;1.45;;;11.20;99.90;;;;;;5246704;28;20465;-78
2022/01/04 12:57:42;;;;;;;1.77;1.67;;;11.20;99.90;;;;;;5257629;28;20047;-78
2022/01/04 13:00:16;;;;;;;1.48;1.48;;;11.20;99.90;;;;;;5256695;28;20040;-77
2022/01/04 13:02:47;;;;;;;2.65;2.55;;;11.20;99.90;;;;;;5257459;28;20047;-78
2022/01/04 13:05:20;;;;;;;1.33;1.23;;;11.10;99.90;;;;;;5249042;28;20284;-78
2022/01/04 13:07:53;;;;;;;1.20;1.20;;;11.20;99.90;;;;;;5251779;28;20118;-78
2022/01/04 13:10:27;;;;;;;1.75;1.30;;;11.30;99.90;;;;;;5249451;28;20079;-79
2022/01/04 13:12:58;;;;;;;1.75;1.65;;;11.40;99.90;;;;;;5259041;28;20038;-76
2022/01/04 13:15:33;;;;;;;1.00;1.00;;;11.50;99.90;;;;;;5263258;28;20078;-78
2022/01/04 13:18:06;;;;;;;2.63;2.53;;;11.40;99.90;;;;;;5261698;28;20327;-79
2022/01/04 13:20:41;;;;;;;1.77;1.67;;;11.20;99.90;;;;;;5272213;28;20422;-77
2022/01/04 13:23:14;;;;;;;1.20;1.20;;;11.00;99.90;;;;;;5259119;28;20028;-79
2022/01/04 13:25:45;;;;;;;1.40;1.30;;;11.00;99.90;;;;;;5261632;28;20087;-77
2022/01/04 13:28:23;;;;;;;1.30;1.30;;;11.00;99.90;;;;;;5258388;28;20058;-76
2022/01/04 13:30:57;;;;;;;1.70;1.65;;;11.00;99.90;;;;;;5260469;28;20031;-78
2022/01/04 13:33:38;;;;;;;1.20;1.20;;;11.00;99.90;;;;;;5259840;28;20051;-78
2022/01/04 13:36:22;;;;;;;1.85;1.75;;;11.00;99.90;;;;;;5241792;28;20040;-79
2022/01/04 13:39:03;;;;;;;1.27;1.23;;;11.10;99.90;;;;;;5271423;28;20134;-77
2022/01/04 13:41:36;;;;;;;1.33;1.33;;;11.20;99.90;;;;;;5258956;28;20085;-78
2022/01/04 13:44:11;;;;;;;1.70;1.70;;;11.20;99.90;;;;;;5258964;28;20038;-79
2022/01/04 13:46:44;;;;;;;1.55;1.50;;;11.30;99.90;;;;;;5258507;28;20093;-77